sensor_id;sensor_type;location;lat;lon;timestamp;P1;durP1;ratioP1;P2;durP2;ratioP2
54823;SDS011;40724;53.196;5.980;2023-03-14T00:01:54;22.08;;;5.68;;
54823;SDS011;40724;53.196;5.980;2023-03-14T00:04:20;18.52;;;6.70;;
54823;SDS011;40724;53.196;5.980;2023-03-14T00:06:46;16.45;;;6.43;;
54823;SDS011;40724;53.196;5.980;2023-03-14T00:09:13;14.05;;;5.15;;
54823;SDS011;40724;53.196;5.980;2023-03-14T00:11:39;16.70;;;5.93;;
54823;SDS011;40724;53.196;5.980;2023-03-14T00:14:05;14.23;;;5.80;;
54823;SDS011;40724;53.196;5.980;2023-03-14T00:16:31;20.88;;;5.55;;
54823;SDS011;40724;53.196;5.980;2023-03-14T00:18:58;16.42;;;5.82;;
54823;SDS011;40724;53.196;5.980;2023-03-14T00:21:24;21.38;;;6.32;;
54823;SDS011;40724;53.196;5.980;2023-03-14T00:23:51;16.95;;;5.65;;
54823;SDS011;40724;53.196;5.980;2023-03-14T00:26:18;19.70;;;5.95;;
54823;SDS011;40724;53.196;5.980;2023-03-14T00:28:44;18.30;;;6.50;;
54823;SDS011;40724;53.196;5.980;2023-03-14T00:31:12;25.85;;;5.63;;
54823;SDS011;40724;53.196;5.980;2023-03-14T00:33:38;17.10;;;5.68;;
54823;SDS011;40724;53.196;5.980;2023-03-14T00:36:06;16.42;;;6.13;;
54823;SDS011;40724;53.196;5.980;2023-03-14T00:38:34;12.93;;;6.50;;
54823;SDS011;40724;53.196;5.980;2023-03-14T00:41:07;20.90;;;6.13;;
54823;SDS011;40724;53.196;5.980;2023-03-14T00:43:33;18.05;;;5.47;;
54823;SDS011;40724;53.196;5.980;2023-03-14T00:46:00;21.25;;;6.25;;
54823;SDS011;40724;53.196;5.980;2023-03-14T00:48:27;22.25;;;5.43;;
54823;SDS011;40724;53.196;5.980;2023-03-14T00:50:53;24.92;;;7.05;;
54823;SDS011;40724;53.196;5.980;2023-03-14T00:53:19;20.85;;;5.65;;
54823;SDS011;40724;53.196;5.980;2023-03-14T00:55:45;15.60;;;5.10;;
54823;SDS011;40724;53.196;5.980;2023-03-14T00:58:12;21.35;;;5.45;;
54823;SDS011;40724;53.196;5.980;2023-03-14T01:00:39;17.20;;;5.32;;
54823;SDS011;40724;53.196;5.980;2023-03-14T01:03:05;12.93;;;5.50;;
54823;SDS011;40724;53.196;5.980;2023-03-14T01:05:31;15.35;;;5.63;;
54823;SDS011;40724;53.196;5.980;2023-03-14T01:07:57;19.13;;;5.50;;
54823;SDS011;40724;53.196;5.980;2023-03-14T01:10:24;11.52;;;4.72;;
54823;SDS011;40724;53.196;5.980;2023-03-14T01:12:50;17.25;;;4.95;;
54823;SDS011;40724;53.196;5.980;2023-03-14T01:15:16;19.58;;;5.55;;
54823;SDS011;40724;53.196;5.980;2023-03-14T01:17:42;13.95;;;4.40;;
54823;SDS011;40724;53.196;5.980;2023-03-14T01:20:10;19.27;;;5.10;;
54823;SDS011;40724;53.196;5.980;2023-03-14T01:22:36;14.43;;;5.60;;
54823;SDS011;40724;53.196;5.980;2023-03-14T01:25:08;14.73;;;4.47;;
54823;SDS011;40724;53.196;5.980;2023-03-14T01:27:35;16.85;;;5.38;;
54823;SDS011;40724;53.196;5.980;2023-03-14T01:30:01;22.13;;;5.93;;
54823;SDS011;40724;53.196;5.980;2023-03-14T01:32:27;12.40;;;5.03;;
54823;SDS011;40724;53.196;5.980;2023-03-14T01:34:53;17.20;;;5.63;;
54823;SDS011;40724;53.196;5.980;2023-03-14T01:37:20;11.52;;;4.53;;
54823;SDS011;40724;53.196;5.980;2023-03-14T01:39:46;11.32;;;4.40;;
54823;SDS011;40724;53.196;5.980;2023-03-14T01:42:13;13.05;;;4.25;;
54823;SDS011;40724;53.196;5.980;2023-03-14T01:44:49;12.48;;;4.35;;
54823;SDS011;40724;53.196;5.980;2023-03-14T01:47:15;15.32;;;4.80;;
54823;SDS011;40724;53.196;5.980;2023-03-14T01:49:41;15.32;;;4.72;;
54823;SDS011;40724;53.196;5.980;2023-03-14T01:54:37;14.27;;;4.57;;
54823;SDS011;40724;53.196;5.980;2023-03-14T01:57:07;17.38;;;5.32;;
54823;SDS011;40724;53.196;5.980;2023-03-14T01:59:34;13.00;;;4.70;;
54823;SDS011;40724;53.196;5.980;2023-03-14T02:02:01;14.15;;;5.18;;
54823;SDS011;40724;53.196;5.980;2023-03-14T02:04:28;11.90;;;4.43;;
54823;SDS011;40724;53.196;5.980;2023-03-14T02:07:30;11.02;;;3.97;;
54823;SDS011;40724;53.196;5.980;2023-03-14T02:09:48;12.48;;;3.72;;
54823;SDS011;40724;53.196;5.980;2023-03-14T02:12:15;12.13;;;4.03;;
54823;SDS011;40724;53.196;5.980;2023-03-14T02:14:42;17.67;;;4.95;;
54823;SDS011;40724;53.196;5.980;2023-03-14T02:17:13;23.55;;;4.82;;
54823;SDS011;40724;53.196;5.980;2023-03-14T02:22:09;12.90;;;4.63;;
54823;SDS011;40724;53.196;5.980;2023-03-14T02:25:22;13.55;;;5.18;;
54823;SDS011;40724;53.196;5.980;2023-03-14T02:27:22;9.68;;;3.70;;
54823;SDS011;40724;53.196;5.980;2023-03-14T02:29:50;11.82;;;4.18;;
54823;SDS011;40724;53.196;5.980;2023-03-14T02:32:17;17.30;;;3.65;;
54823;SDS011;40724;53.196;5.980;2023-03-14T02:34:45;14.18;;;4.15;;
54823;SDS011;40724;53.196;5.980;2023-03-14T02:37:13;11.95;;;3.95;;
54823;SDS011;40724;53.196;5.980;2023-03-14T02:39:42;20.33;;;5.13;;
54823;SDS011;40724;53.196;5.980;2023-03-14T02:42:09;12.63;;;4.60;;
54823;SDS011;40724;53.196;5.980;2023-03-14T02:44:36;17.98;;;5.03;;
54823;SDS011;40724;53.196;5.980;2023-03-14T02:47:03;14.95;;;4.32;;
54823;SDS011;40724;53.196;5.980;2023-03-14T02:49:30;18.15;;;4.72;;
54823;SDS011;40724;53.196;5.980;2023-03-14T02:51:57;23.92;;;5.07;;
54823;SDS011;40724;53.196;5.980;2023-03-14T02:54:23;15.23;;;4.50;;
54823;SDS011;40724;53.196;5.980;2023-03-14T02:56:49;12.68;;;4.53;;
54823;SDS011;40724;53.196;5.980;2023-03-14T02:59:16;15.45;;;5.40;;
54823;SDS011;40724;53.196;5.980;2023-03-14T03:01:42;16.88;;;5.25;;
54823;SDS011;40724;53.196;5.980;2023-03-14T03:04:08;14.13;;;4.53;;
54823;SDS011;40724;53.196;5.980;2023-03-14T03:06:34;16.58;;;5.32;;
54823;SDS011;40724;53.196;5.980;2023-03-14T03:09:00;14.43;;;5.85;;
54823;SDS011;40724;53.196;5.980;2023-03-14T03:11:26;15.90;;;5.03;;
54823;SDS011;40724;53.196;5.980;2023-03-14T03:13:52;25.75;;;5.80;;
54823;SDS011;40724;53.196;5.980;2023-03-14T03:16:19;16.33;;;6.47;;
54823;SDS011;40724;53.196;5.980;2023-03-14T03:18:45;26.08;;;7.70;;
54823;SDS011;40724;53.196;5.980;2023-03-14T03:21:11;19.50;;;6.43;;
54823;SDS011;40724;53.196;5.980;2023-03-14T03:23:37;24.77;;;6.75;;
54823;SDS011;40724;53.196;5.980;2023-03-14T03:26:03;16.05;;;6.15;;
54823;SDS011;40724;53.196;5.980;2023-03-14T03:28:29;20.52;;;6.20;;
54823;SDS011;40724;53.196;5.980;2023-03-14T03:30:55;22.20;;;7.35;;
54823;SDS011;40724;53.196;5.980;2023-03-14T03:33:22;25.17;;;8.13;;
54823;SDS011;40724;53.196;5.980;2023-03-14T03:35:49;23.92;;;6.72;;
54823;SDS011;40724;53.196;5.980;2023-03-14T03:38:16;19.23;;;7.10;;
54823;SDS011;40724;53.196;5.980;2023-03-14T03:40:42;23.83;;;6.65;;
54823;SDS011;40724;53.196;5.980;2023-03-14T03:43:08;21.52;;;7.13;;
54823;SDS011;40724;53.196;5.980;2023-03-14T03:45:34;15.52;;;5.45;;
54823;SDS011;40724;53.196;5.980;2023-03-14T03:48:00;24.10;;;6.55;;
54823;SDS011;40724;53.196;5.980;2023-03-14T03:50:27;21.10;;;7.28;;
54823;SDS011;40724;53.196;5.980;2023-03-14T03:52:53;20.00;;;6.97;;
54823;SDS011;40724;53.196;5.980;2023-03-14T03:55:19;21.38;;;9.60;;
54823;SDS011;40724;53.196;5.980;2023-03-14T03:57:45;19.63;;;7.72;;
54823;SDS011;40724;53.196;5.980;2023-03-14T04:00:11;23.30;;;7.53;;
54823;SDS011;40724;53.196;5.980;2023-03-14T04:02:37;21.65;;;8.70;;
54823;SDS011;40724;53.196;5.980;2023-03-14T04:05:04;24.15;;;8.10;;
54823;SDS011;40724;53.196;5.980;2023-03-14T04:07:31;26.15;;;8.00;;
54823;SDS011;40724;53.196;5.980;2023-03-14T04:09:57;18.92;;;6.85;;
54823;SDS011;40724;53.196;5.980;2023-03-14T04:12:24;24.75;;;7.95;;
54823;SDS011;40724;53.196;5.980;2023-03-14T04:14:50;16.45;;;6.50;;
54823;SDS011;40724;53.196;5.980;2023-03-14T04:17:16;20.98;;;6.22;;
54823;SDS011;40724;53.196;5.980;2023-03-14T04:19:42;20.38;;;7.28;;
54823;SDS011;40724;53.196;5.980;2023-03-14T04:22:08;25.65;;;7.75;;
54823;SDS011;40724;53.196;5.980;2023-03-14T04:24:34;19.90;;;6.95;;
54823;SDS011;40724;53.196;5.980;2023-03-14T04:27:01;24.35;;;6.97;;
54823;SDS011;40724;53.196;5.980;2023-03-14T04:29:27;18.17;;;5.82;;
54823;SDS011;40724;53.196;5.980;2023-03-14T04:31:53;22.70;;;6.45;;
54823;SDS011;40724;53.196;5.980;2023-03-14T04:34:19;22.52;;;6.30;;
54823;SDS011;40724;53.196;5.980;2023-03-14T04:36:45;16.83;;;6.57;;
54823;SDS011;40724;53.196;5.980;2023-03-14T04:39:11;18.40;;;6.53;;
54823;SDS011;40724;53.196;5.980;2023-03-14T04:41:37;31.08;;;8.63;;
54823;SDS011;40724;53.196;5.980;2023-03-14T04:44:04;21.83;;;6.50;;
54823;SDS011;40724;53.196;5.980;2023-03-14T04:46:30;15.80;;;6.53;;
54823;SDS011;40724;53.196;5.980;2023-03-14T04:48:56;25.60;;;6.15;;
54823;SDS011;40724;53.196;5.980;2023-03-14T04:51:22;18.17;;;7.32;;
54823;SDS011;40724;53.196;5.980;2023-03-14T04:53:52;17.25;;;6.60;;
54823;SDS011;40724;53.196;5.980;2023-03-14T04:56:19;11.68;;;6.82;;
54823;SDS011;40724;53.196;5.980;2023-03-14T04:58:45;16.63;;;7.40;;
54823;SDS011;40724;53.196;5.980;2023-03-14T05:01:11;27.05;;;7.00;;
54823;SDS011;40724;53.196;5.980;2023-03-14T05:03:37;16.88;;;7.00;;
54823;SDS011;40724;53.196;5.980;2023-03-14T05:06:03;16.25;;;7.05;;
54823;SDS011;40724;53.196;5.980;2023-03-14T05:08:30;17.02;;;6.15;;
54823;SDS011;40724;53.196;5.980;2023-03-14T05:10:56;21.90;;;6.85;;
54823;SDS011;40724;53.196;5.980;2023-03-14T05:13:23;19.00;;;7.65;;
54823;SDS011;40724;53.196;5.980;2023-03-14T05:15:49;11.27;;;5.65;;
54823;SDS011;40724;53.196;5.980;2023-03-14T05:18:16;11.82;;;5.55;;
54823;SDS011;40724;53.196;5.980;2023-03-14T05:20:42;12.35;;;4.80;;
54823;SDS011;40724;53.196;5.980;2023-03-14T05:23:08;12.95;;;5.65;;
54823;SDS011;40724;53.196;5.980;2023-03-14T05:25:35;12.90;;;6.10;;
54823;SDS011;40724;53.196;5.980;2023-03-14T05:28:01;9.85;;;5.07;;
54823;SDS011;40724;53.196;5.980;2023-03-14T05:30:27;9.93;;;4.75;;
54823;SDS011;40724;53.196;5.980;2023-03-14T05:32:53;11.30;;;5.75;;
54823;SDS011;40724;53.196;5.980;2023-03-14T05:35:19;12.07;;;5.90;;
54823;SDS011;40724;53.196;5.980;2023-03-14T05:37:46;10.38;;;5.30;;
54823;SDS011;40724;53.196;5.980;2023-03-14T05:40:12;12.40;;;5.45;;
54823;SDS011;40724;53.196;5.980;2023-03-14T05:42:38;5.45;;;4.13;;
54823;SDS011;40724;53.196;5.980;2023-03-14T05:45:04;10.10;;;4.88;;
54823;SDS011;40724;53.196;5.980;2023-03-14T05:47:31;12.05;;;6.05;;
54823;SDS011;40724;53.196;5.980;2023-03-14T05:49:57;9.98;;;5.13;;
54823;SDS011;40724;53.196;5.980;2023-03-14T05:52:23;11.60;;;5.45;;
54823;SDS011;40724;53.196;5.980;2023-03-14T05:54:49;14.82;;;5.38;;
54823;SDS011;40724;53.196;5.980;2023-03-14T05:57:15;3.97;;;1.42;;
54823;SDS011;40724;53.196;5.980;2023-03-14T05:59:41;4.80;;;1.75;;
54823;SDS011;40724;53.196;5.980;2023-03-14T06:02:08;4.20;;;2.13;;
54823;SDS011;40724;53.196;5.980;2023-03-14T06:04:34;5.78;;;2.20;;
54823;SDS011;40724;53.196;5.980;2023-03-14T06:07:00;8.20;;;2.75;;
54823;SDS011;40724;53.196;5.980;2023-03-14T06:09:26;11.30;;;2.75;;
54823;SDS011;40724;53.196;5.980;2023-03-14T06:11:52;10.68;;;3.03;;
54823;SDS011;40724;53.196;5.980;2023-03-14T06:14:18;13.30;;;3.97;;
54823;SDS011;40724;53.196;5.980;2023-03-14T06:16:45;12.32;;;3.35;;
54823;SDS011;40724;53.196;5.980;2023-03-14T06:19:13;10.40;;;3.70;;
54823;SDS011;40724;53.196;5.980;2023-03-14T06:21:39;9.65;;;3.20;;
54823;SDS011;40724;53.196;5.980;2023-03-14T06:24:05;15.25;;;4.07;;
54823;SDS011;40724;53.196;5.980;2023-03-14T06:26:32;18.25;;;3.78;;
54823;SDS011;40724;53.196;5.980;2023-03-14T06:28:58;15.80;;;2.70;;
54823;SDS011;40724;53.196;5.980;2023-03-14T06:31:29;16.95;;;4.45;;
54823;SDS011;40724;53.196;5.980;2023-03-14T06:33:55;10.10;;;2.45;;
54823;SDS011;40724;53.196;5.980;2023-03-14T06:36:22;6.38;;;2.30;;
54823;SDS011;40724;53.196;5.980;2023-03-14T06:38:48;10.02;;;3.05;;
54823;SDS011;40724;53.196;5.980;2023-03-14T06:41:14;5.95;;;2.58;;
54823;SDS011;40724;53.196;5.980;2023-03-14T06:43:40;6.55;;;1.83;;
54823;SDS011;40724;53.196;5.980;2023-03-14T06:46:06;3.63;;;1.50;;
54823;SDS011;40724;53.196;5.980;2023-03-14T06:48:32;10.23;;;1.70;;
54823;SDS011;40724;53.196;5.980;2023-03-14T06:50:58;9.18;;;1.70;;
54823;SDS011;40724;53.196;5.980;2023-03-14T06:53:24;5.82;;;1.38;;
54823;SDS011;40724;53.196;5.980;2023-03-14T06:55:51;6.20;;;1.50;;
54823;SDS011;40724;53.196;5.980;2023-03-14T06:58:17;7.07;;;1.20;;
54823;SDS011;40724;53.196;5.980;2023-03-14T07:00:43;4.22;;;1.67;;
54823;SDS011;40724;53.196;5.980;2023-03-14T07:03:10;3.35;;;1.42;;
54823;SDS011;40724;53.196;5.980;2023-03-14T07:05:36;2.92;;;1.27;;
54823;SDS011;40724;53.196;5.980;2023-03-14T07:08:05;5.30;;;1.20;;
54823;SDS011;40724;53.196;5.980;2023-03-14T07:10:32;4.85;;;1.55;;
54823;SDS011;40724;53.196;5.980;2023-03-14T07:12:58;5.63;;;1.30;;
54823;SDS011;40724;53.196;5.980;2023-03-14T07:15:25;4.30;;;1.30;;
54823;SDS011;40724;53.196;5.980;2023-03-14T07:17:51;6.70;;;1.75;;
54823;SDS011;40724;53.196;5.980;2023-03-14T07:20:17;7.07;;;1.45;;
54823;SDS011;40724;53.196;5.980;2023-03-14T07:22:43;4.43;;;1.30;;
54823;SDS011;40724;53.196;5.980;2023-03-14T07:25:09;7.05;;;1.67;;
54823;SDS011;40724;53.196;5.980;2023-03-14T07:27:37;5.25;;;1.48;;
54823;SDS011;40724;53.196;5.980;2023-03-14T07:30:03;6.57;;;1.73;;
54823;SDS011;40724;53.196;5.980;2023-03-14T07:32:30;3.60;;;1.80;;
54823;SDS011;40724;53.196;5.980;2023-03-14T07:34:56;4.78;;;1.20;;
54823;SDS011;40724;53.196;5.980;2023-03-14T07:37:22;4.85;;;1.75;;
54823;SDS011;40724;53.196;5.980;2023-03-14T07:39:48;2.88;;;1.23;;
54823;SDS011;40724;53.196;5.980;2023-03-14T07:42:14;3.63;;;1.30;;
54823;SDS011;40724;53.196;5.980;2023-03-14T07:44:40;4.60;;;2.08;;
54823;SDS011;40724;53.196;5.980;2023-03-14T07:47:07;6.78;;;1.92;;
54823;SDS011;40724;53.196;5.980;2023-03-14T07:49:33;5.03;;;1.27;;
54823;SDS011;40724;53.196;5.980;2023-03-14T07:51:59;5.50;;;1.88;;
54823;SDS011;40724;53.196;5.980;2023-03-14T07:54:25;9.32;;;2.00;;
54823;SDS011;40724;53.196;5.980;2023-03-14T07:56:51;6.63;;;1.90;;
54823;SDS011;40724;53.196;5.980;2023-03-14T07:59:18;5.22;;;1.60;;
54823;SDS011;40724;53.196;5.980;2023-03-14T08:01:44;6.55;;;1.92;;
54823;SDS011;40724;53.196;5.980;2023-03-14T08:04:10;8.65;;;1.85;;
54823;SDS011;40724;53.196;5.980;2023-03-14T08:06:36;12.07;;;1.98;;
54823;SDS011;40724;53.196;5.980;2023-03-14T08:09:03;4.18;;;1.73;;
54823;SDS011;40724;53.196;5.980;2023-03-14T08:11:29;6.85;;;1.85;;
54823;SDS011;40724;53.196;5.980;2023-03-14T08:13:56;6.97;;;1.85;;
54823;SDS011;40724;53.196;5.980;2023-03-14T08:16:22;11.13;;;2.50;;
54823;SDS011;40724;53.196;5.980;2023-03-14T08:18:48;7.00;;;2.72;;
54823;SDS011;40724;53.196;5.980;2023-03-14T08:21:14;5.97;;;2.92;;
54823;SDS011;40724;53.196;5.980;2023-03-14T08:23:40;8.95;;;3.20;;
54823;SDS011;40724;53.196;5.980;2023-03-14T08:26:06;12.85;;;3.38;;
54823;SDS011;40724;53.196;5.980;2023-03-14T08:28:33;10.43;;;2.78;;
54823;SDS011;40724;53.196;5.980;2023-03-14T08:30:59;12.75;;;3.00;;
54823;SDS011;40724;53.196;5.980;2023-03-14T08:33:27;8.38;;;3.55;;
54823;SDS011;40724;53.196;5.980;2023-03-14T08:35:54;15.20;;;3.13;;
54823;SDS011;40724;53.196;5.980;2023-03-14T08:38:20;12.55;;;3.88;;
54823;SDS011;40724;53.196;5.980;2023-03-14T08:40:46;12.15;;;4.03;;
54823;SDS011;40724;53.196;5.980;2023-03-14T08:43:12;13.30;;;3.10;;
54823;SDS011;40724;53.196;5.980;2023-03-14T08:45:39;11.70;;;3.55;;
54823;SDS011;40724;53.196;5.980;2023-03-14T08:48:05;21.65;;;4.50;;
54823;SDS011;40724;53.196;5.980;2023-03-14T08:50:31;10.38;;;4.10;;
54823;SDS011;40724;53.196;5.980;2023-03-14T08:52:57;20.83;;;3.88;;
54823;SDS011;40724;53.196;5.980;2023-03-14T08:55:25;15.68;;;4.90;;
54823;SDS011;40724;53.196;5.980;2023-03-14T08:57:52;12.05;;;4.32;;
54823;SDS011;40724;53.196;5.980;2023-03-14T09:00:19;15.60;;;5.15;;
54823;SDS011;40724;53.196;5.980;2023-03-14T09:02:45;20.20;;;3.78;;
54823;SDS011;40724;53.196;5.980;2023-03-14T09:05:12;10.63;;;4.53;;
54823;SDS011;40724;53.196;5.980;2023-03-14T09:07:38;13.43;;;5.00;;
54823;SDS011;40724;53.196;5.980;2023-03-14T09:10:05;13.90;;;4.57;;
54823;SDS011;40724;53.196;5.980;2023-03-14T09:12:32;15.50;;;5.05;;
54823;SDS011;40724;53.196;5.980;2023-03-14T09:14:58;13.73;;;4.05;;
54823;SDS011;40724;53.196;5.980;2023-03-14T09:17:24;16.05;;;4.32;;
54823;SDS011;40724;53.196;5.980;2023-03-14T09:19:50;21.00;;;4.10;;
54823;SDS011;40724;53.196;5.980;2023-03-14T09:22:16;12.90;;;4.85;;
54823;SDS011;40724;53.196;5.980;2023-03-14T09:24:43;16.25;;;4.22;;
54823;SDS011;40724;53.196;5.980;2023-03-14T09:27:09;12.68;;;4.97;;
54823;SDS011;40724;53.196;5.980;2023-03-14T09:29:35;22.77;;;4.28;;
54823;SDS011;40724;53.196;5.980;2023-03-14T09:32:01;19.35;;;5.65;;
54823;SDS011;40724;53.196;5.980;2023-03-14T09:34:28;13.82;;;4.38;;
54823;SDS011;40724;53.196;5.980;2023-03-14T09:36:54;14.60;;;4.75;;
54823;SDS011;40724;53.196;5.980;2023-03-14T09:39:20;15.75;;;4.70;;
54823;SDS011;40724;53.196;5.980;2023-03-14T09:41:47;16.70;;;4.32;;
54823;SDS011;40724;53.196;5.980;2023-03-14T09:44:25;10.93;;;3.97;;
54823;SDS011;40724;53.196;5.980;2023-03-14T09:46:53;17.15;;;4.90;;
54823;SDS011;40724;53.196;5.980;2023-03-14T09:49:20;15.13;;;4.43;;
54823;SDS011;40724;53.196;5.980;2023-03-14T09:51:48;16.35;;;5.05;;
54823;SDS011;40724;53.196;5.980;2023-03-14T09:54:58;17.30;;;4.65;;
54823;SDS011;40724;53.196;5.980;2023-03-14T09:57:05;13.57;;;3.95;;
54823;SDS011;40724;53.196;5.980;2023-03-14T09:59:32;13.88;;;4.10;;
54823;SDS011;40724;53.196;5.980;2023-03-14T10:02:11;32.08;;;4.40;;
54823;SDS011;40724;53.196;5.980;2023-03-14T10:04:38;12.75;;;4.05;;
54823;SDS011;40724;53.196;5.980;2023-03-14T10:07:16;12.43;;;3.72;;
54823;SDS011;40724;53.196;5.980;2023-03-14T10:09:48;9.70;;;3.38;;
54823;SDS011;40724;53.196;5.980;2023-03-14T10:12:15;7.90;;;3.17;;
54823;SDS011;40724;53.196;5.980;2023-03-14T10:14:49;16.63;;;3.28;;
54823;SDS011;40724;53.196;5.980;2023-03-14T10:17:15;14.45;;;3.85;;
54823;SDS011;40724;53.196;5.980;2023-03-14T10:19:55;8.70;;;3.05;;
54823;SDS011;40724;53.196;5.980;2023-03-14T10:22:23;16.13;;;3.17;;
54823;SDS011;40724;53.196;5.980;2023-03-14T10:24:54;8.20;;;2.92;;
54823;SDS011;40724;53.196;5.980;2023-03-14T10:27:32;10.38;;;2.90;;
54823;SDS011;40724;53.196;5.980;2023-03-14T10:30:00;9.90;;;2.83;;
54823;SDS011;40724;53.196;5.980;2023-03-14T10:32:36;6.72;;;3.47;;
54823;SDS011;40724;53.196;5.980;2023-03-14T10:38:15;15.85;;;3.35;;
54823;SDS011;40724;53.196;5.980;2023-03-14T10:40:34;12.15;;;2.33;;
54823;SDS011;40724;53.196;5.980;2023-03-14T10:43:04;10.07;;;3.00;;
54823;SDS011;40724;53.196;5.980;2023-03-14T10:45:38;6.75;;;2.63;;
54823;SDS011;40724;53.196;5.980;2023-03-14T10:51:26;10.57;;;2.90;;
54823;SDS011;40724;53.196;5.980;2023-03-14T10:53:26;8.80;;;2.85;;
54823;SDS011;40724;53.196;5.980;2023-03-14T10:55:52;11.65;;;3.08;;
54823;SDS011;40724;53.196;5.980;2023-03-14T10:58:23;5.50;;;1.67;;
54823;SDS011;40724;53.196;5.980;2023-03-14T11:00:58;12.43;;;3.20;;
54823;SDS011;40724;53.196;5.980;2023-03-14T11:03:26;8.63;;;2.15;;
54823;SDS011;40724;53.196;5.980;2023-03-14T11:05:56;11.38;;;2.97;;
54823;SDS011;40724;53.196;5.980;2023-03-14T11:08:27;6.15;;;2.33;;
54823;SDS011;40724;53.196;5.980;2023-03-14T11:11:02;4.45;;;1.90;;
54823;SDS011;40724;53.196;5.980;2023-03-14T11:13:43;6.68;;;2.10;;
54823;SDS011;40724;53.196;5.980;2023-03-14T11:19:00;6.20;;;2.20;;
54823;SDS011;40724;53.196;5.980;2023-03-14T11:21:35;5.80;;;1.80;;
54823;SDS011;40724;53.196;5.980;2023-03-14T11:29:26;7.43;;;1.70;;
54823;SDS011;40724;53.196;5.980;2023-03-14T11:32:01;5.35;;;1.92;;
54823;SDS011;40724;53.196;5.980;2023-03-14T11:34:28;9.57;;;1.90;;
54823;SDS011;40724;53.196;5.980;2023-03-14T11:37:01;8.75;;;1.58;;
54823;SDS011;40724;53.196;5.980;2023-03-14T11:39:34;10.02;;;2.28;;
54823;SDS011;40724;53.196;5.980;2023-03-14T11:42:02;9.13;;;1.73;;
54823;SDS011;40724;53.196;5.980;2023-03-14T11:44:32;6.47;;;2.20;;
54823;SDS011;40724;53.196;5.980;2023-03-14T11:47:08;9.80;;;1.85;;
54823;SDS011;40724;53.196;5.980;2023-03-14T11:49:42;8.77;;;2.30;;
54823;SDS011;40724;53.196;5.980;2023-03-14T11:52:10;12.15;;;2.97;;
54823;SDS011;40724;53.196;5.980;2023-03-14T11:54:43;11.13;;;2.65;;
54823;SDS011;40724;53.196;5.980;2023-03-14T11:57:21;8.07;;;2.42;;
54823;SDS011;40724;53.196;5.980;2023-03-14T12:02:40;7.20;;;2.72;;
54823;SDS011;40724;53.196;5.980;2023-03-14T12:10:24;7.70;;;2.60;;
54823;SDS011;40724;53.196;5.980;2023-03-14T12:12:50;5.20;;;1.95;;
54823;SDS011;40724;53.196;5.980;2023-03-14T12:15:20;4.45;;;1.80;;
54823;SDS011;40724;53.196;5.980;2023-03-14T12:17:47;10.23;;;2.40;;
54823;SDS011;40724;53.196;5.980;2023-03-14T12:20:21;15.07;;;3.63;;
54823;SDS011;40724;53.196;5.980;2023-03-14T12:22:49;9.93;;;2.55;;
54823;SDS011;40724;53.196;5.980;2023-03-14T12:25:25;6.13;;;2.35;;
54823;SDS011;40724;53.196;5.980;2023-03-14T12:30:38;4.22;;;1.77;;
54823;SDS011;40724;53.196;5.980;2023-03-14T12:35:46;8.05;;;2.13;;
54823;SDS011;40724;53.196;5.980;2023-03-14T12:43:28;5.75;;;1.95;;
54823;SDS011;40724;53.196;5.980;2023-03-14T12:46:37;7.28;;;2.08;;
54823;SDS011;40724;53.196;5.980;2023-03-14T12:48:45;15.35;;;2.80;;
54823;SDS011;40724;53.196;5.980;2023-03-14T12:51:13;9.15;;;2.45;;
54823;SDS011;40724;53.196;5.980;2023-03-14T13:01:22;8.57;;;2.88;;
54823;SDS011;40724;53.196;5.980;2023-03-14T13:06:44;6.63;;;2.17;;
54823;SDS011;40724;53.196;5.980;2023-03-14T13:09:23;7.68;;;1.80;;
54823;SDS011;40724;53.196;5.980;2023-03-14T13:11:46;7.00;;;2.20;;
54823;SDS011;40724;53.196;5.980;2023-03-14T13:14:12;7.80;;;2.25;;
54823;SDS011;40724;53.196;5.980;2023-03-14T13:16:39;4.90;;;2.13;;
54823;SDS011;40724;53.196;5.980;2023-03-14T13:19:25;7.78;;;1.95;;
54823;SDS011;40724;53.196;5.980;2023-03-14T13:22:03;8.75;;;2.10;;
54823;SDS011;40724;53.196;5.980;2023-03-14T13:24:32;9.68;;;1.92;;
54823;SDS011;40724;53.196;5.980;2023-03-14T13:26:59;5.80;;;2.42;;
54823;SDS011;40724;53.196;5.980;2023-03-14T13:29:26;10.80;;;2.55;;
54823;SDS011;40724;53.196;5.980;2023-03-14T13:31:53;6.13;;;2.20;;
54823;SDS011;40724;53.196;5.980;2023-03-14T13:34:24;8.32;;;1.92;;
54823;SDS011;40724;53.196;5.980;2023-03-14T13:36:53;8.88;;;2.38;;
54823;SDS011;40724;53.196;5.980;2023-03-14T13:39:20;7.93;;;2.42;;
54823;SDS011;40724;53.196;5.980;2023-03-14T13:41:54;11.10;;;2.97;;
54823;SDS011;40724;53.196;5.980;2023-03-14T13:47:17;7.82;;;2.13;;
54823;SDS011;40724;53.196;5.980;2023-03-14T13:49:44;4.75;;;2.17;;
54823;SDS011;40724;53.196;5.980;2023-03-14T13:52:23;8.32;;;2.42;;
54823;SDS011;40724;53.196;5.980;2023-03-14T13:54:53;9.32;;;2.70;;
54823;SDS011;40724;53.196;5.980;2023-03-14T13:57:19;6.38;;;1.98;;
54823;SDS011;40724;53.196;5.980;2023-03-14T13:59:57;7.30;;;2.42;;
54823;SDS011;40724;53.196;5.980;2023-03-14T14:02:24;5.70;;;2.30;;
54823;SDS011;40724;53.196;5.980;2023-03-14T14:04:51;5.80;;;2.13;;
54823;SDS011;40724;53.196;5.980;2023-03-14T14:07:17;8.68;;;2.38;;
54823;SDS011;40724;53.196;5.980;2023-03-14T14:09:53;4.32;;;1.58;;
54823;SDS011;40724;53.196;5.980;2023-03-14T14:14:57;4.72;;;1.75;;
54823;SDS011;40724;53.196;5.980;2023-03-14T14:17:25;6.07;;;1.70;;
54823;SDS011;40724;53.196;5.980;2023-03-14T14:19:52;12.90;;;1.95;;
54823;SDS011;40724;53.196;5.980;2023-03-14T14:22:18;7.68;;;1.92;;
54823;SDS011;40724;53.196;5.980;2023-03-14T14:24:45;4.65;;;1.60;;
54823;SDS011;40724;53.196;5.980;2023-03-14T14:27:16;2.65;;;1.70;;
54823;SDS011;40724;53.196;5.980;2023-03-14T14:30:00;6.20;;;1.77;;
54823;SDS011;40724;53.196;5.980;2023-03-14T14:32:27;10.75;;;2.38;;
54823;SDS011;40724;53.196;5.980;2023-03-14T14:37:27;6.78;;;2.00;;
54823;SDS011;40724;53.196;5.980;2023-03-14T14:39:57;11.02;;;2.88;;
54823;SDS011;40724;53.196;5.980;2023-03-14T14:42:25;6.70;;;2.25;;
54823;SDS011;40724;53.196;5.980;2023-03-14T14:44:52;8.60;;;2.42;;
54823;SDS011;40724;53.196;5.980;2023-03-14T14:47:19;9.45;;;2.63;;
54823;SDS011;40724;53.196;5.980;2023-03-14T14:49:47;4.60;;;1.88;;
54823;SDS011;40724;53.196;5.980;2023-03-14T14:52:17;3.72;;;1.83;;
54823;SDS011;40724;53.196;5.980;2023-03-14T14:57:24;8.98;;;2.60;;
54823;SDS011;40724;53.196;5.980;2023-03-14T14:59:54;14.52;;;4.05;;
54823;SDS011;40724;53.196;5.980;2023-03-14T15:02:28;8.63;;;3.17;;
54823;SDS011;40724;53.196;5.980;2023-03-14T15:04:55;4.88;;;1.88;;
54823;SDS011;40724;53.196;5.980;2023-03-14T15:07:21;3.42;;;1.90;;
54823;SDS011;40724;53.196;5.980;2023-03-14T15:09:47;9.52;;;2.40;;
54823;SDS011;40724;53.196;5.980;2023-03-14T15:12:17;11.02;;;2.63;;
54823;SDS011;40724;53.196;5.980;2023-03-14T15:14:43;15.85;;;4.10;;
54823;SDS011;40724;53.196;5.980;2023-03-14T15:17:10;7.45;;;2.63;;
54823;SDS011;40724;53.196;5.980;2023-03-14T15:19:37;9.50;;;2.70;;
54823;SDS011;40724;53.196;5.980;2023-03-14T15:22:05;8.57;;;2.53;;
54823;SDS011;40724;53.196;5.980;2023-03-14T15:24:31;9.20;;;2.67;;
54823;SDS011;40724;53.196;5.980;2023-03-14T15:26:57;7.57;;;2.25;;
54823;SDS011;40724;53.196;5.980;2023-03-14T15:29:23;10.48;;;2.58;;
54823;SDS011;40724;53.196;5.980;2023-03-14T15:31:49;10.38;;;3.42;;
54823;SDS011;40724;53.196;5.980;2023-03-14T15:34:15;10.60;;;2.20;;
54823;SDS011;40724;53.196;5.980;2023-03-14T15:36:42;10.48;;;2.60;;
54823;SDS011;40724;53.196;5.980;2023-03-14T15:39:09;6.47;;;2.38;;
54823;SDS011;40724;53.196;5.980;2023-03-14T15:41:36;6.32;;;2.45;;
54823;SDS011;40724;53.196;5.980;2023-03-14T15:44:02;7.25;;;2.50;;